sensor_id;sensor_type;location;lat;lon;timestamp;P1;durP1;ratioP1;P2;durP2;ratioP2
51800;SDS011;37855;53.204;6.568;2022-08-03T00:01:16;10.02;;;2.22;;
51800;SDS011;37855;53.204;6.568;2022-08-03T00:03:42;6.13;;;1.88;;
51800;SDS011;37855;53.204;6.568;2022-08-03T00:06:08;10.25;;;1.95;;
51800;SDS011;37855;53.204;6.568;2022-08-03T00:08:34;9.90;;;2.03;;
51800;SDS011;37855;53.204;6.568;2022-08-03T00:11:00;8.57;;;2.33;;
51800;SDS011;37855;53.204;6.568;2022-08-03T00:13:25;12.07;;;2.30;;
51800;SDS011;37855;53.204;6.568;2022-08-03T00:15:51;10.38;;;1.83;;
51800;SDS011;37855;53.204;6.568;2022-08-03T00:18:17;8.93;;;2.15;;
51800;SDS011;37855;53.204;6.568;2022-08-03T00:20:43;9.88;;;2.05;;
51800;SDS011;37855;53.204;6.568;2022-08-03T00:23:09;12.43;;;2.33;;
51800;SDS011;37855;53.204;6.568;2022-08-03T00:25:35;11.80;;;2.05;;
51800;SDS011;37855;53.204;6.568;2022-08-03T00:28:02;7.53;;;2.08;;
51800;SDS011;37855;53.204;6.568;2022-08-03T00:30:29;9.68;;;1.98;;
51800;SDS011;37855;53.204;6.568;2022-08-03T00:32:55;10.02;;;2.13;;
51800;SDS011;37855;53.204;6.568;2022-08-03T00:35:22;10.05;;;1.92;;
51800;SDS011;37855;53.204;6.568;2022-08-03T00:37:47;9.63;;;2.45;;
51800;SDS011;37855;53.204;6.568;2022-08-03T00:40:14;8.32;;;2.30;;
51800;SDS011;37855;53.204;6.568;2022-08-03T00:42:56;13.82;;;2.45;;
51800;SDS011;37855;53.204;6.568;2022-08-03T00:45:24;7.18;;;1.80;;
51800;SDS011;37855;53.204;6.568;2022-08-03T00:47:54;10.68;;;2.40;;
51800;SDS011;37855;53.204;6.568;2022-08-03T00:50:21;9.23;;;2.33;;
51800;SDS011;37855;53.204;6.568;2022-08-03T00:52:48;13.38;;;2.35;;
51800;SDS011;37855;53.204;6.568;2022-08-03T00:55:16;8.02;;;2.13;;
51800;SDS011;37855;53.204;6.568;2022-08-03T00:57:42;11.85;;;2.55;;
51800;SDS011;37855;53.204;6.568;2022-08-03T01:00:09;9.50;;;2.10;;
51800;SDS011;37855;53.204;6.568;2022-08-03T01:02:37;12.90;;;3.25;;
51800;SDS011;37855;53.204;6.568;2022-08-03T01:05:05;13.23;;;2.63;;
51800;SDS011;37855;53.204;6.568;2022-08-03T01:15:24;11.23;;;2.20;;
51800;SDS011;37855;53.204;6.568;2022-08-03T01:18:24;8.85;;;2.10;;
51800;SDS011;37855;53.204;6.568;2022-08-03T01:20:54;7.82;;;1.95;;
51800;SDS011;37855;53.204;6.568;2022-08-03T01:23:26;8.02;;;1.90;;
51800;SDS011;37855;53.204;6.568;2022-08-03T01:31:40;9.05;;;2.00;;
51800;SDS011;37855;53.204;6.568;2022-08-03T01:34:13;8.48;;;1.83;;
51800;SDS011;37855;53.204;6.568;2022-08-03T01:36:42;9.30;;;2.05;;
51800;SDS011;37855;53.204;6.568;2022-08-03T01:39:13;9.25;;;1.88;;
51800;SDS011;37855;53.204;6.568;2022-08-03T01:41:43;4.82;;;1.85;;
51800;SDS011;37855;53.204;6.568;2022-08-03T01:44:13;9.45;;;1.98;;
51800;SDS011;37855;53.204;6.568;2022-08-03T01:46:39;10.18;;;2.00;;
51800;SDS011;37855;53.204;6.568;2022-08-03T01:49:08;6.18;;;1.90;;
51800;SDS011;37855;53.204;6.568;2022-08-03T01:51:37;11.18;;;2.08;;
51800;SDS011;37855;53.204;6.568;2022-08-03T01:54:05;7.55;;;1.80;;
51800;SDS011;37855;53.204;6.568;2022-08-03T01:56:34;15.40;;;1.70;;
51800;SDS011;37855;53.204;6.568;2022-08-03T01:59:02;7.45;;;2.05;;
51800;SDS011;37855;53.204;6.568;2022-08-03T02:01:32;7.13;;;1.83;;
51800;SDS011;37855;53.204;6.568;2022-08-03T02:04:00;11.27;;;1.90;;
51800;SDS011;37855;53.204;6.568;2022-08-03T02:06:28;9.75;;;2.10;;
51800;SDS011;37855;53.204;6.568;2022-08-03T02:08:58;10.13;;;1.75;;
51800;SDS011;37855;53.204;6.568;2022-08-03T02:11:25;7.50;;;1.70;;
51800;SDS011;37855;53.204;6.568;2022-08-03T02:13:55;8.45;;;1.77;;
51800;SDS011;37855;53.204;6.568;2022-08-03T02:16:23;12.10;;;1.90;;
51800;SDS011;37855;53.204;6.568;2022-08-03T02:18:50;8.15;;;1.58;;
51800;SDS011;37855;53.204;6.568;2022-08-03T02:21:18;8.13;;;1.80;;
51800;SDS011;37855;53.204;6.568;2022-08-03T02:23:45;8.75;;;1.90;;
51800;SDS011;37855;53.204;6.568;2022-08-03T02:26:13;7.13;;;1.80;;
51800;SDS011;37855;53.204;6.568;2022-08-03T02:28:44;6.15;;;1.70;;
51800;SDS011;37855;53.204;6.568;2022-08-03T02:31:15;6.30;;;1.60;;
51800;SDS011;37855;53.204;6.568;2022-08-03T02:33:49;12.40;;;1.95;;
51800;SDS011;37855;53.204;6.568;2022-08-03T02:36:27;8.70;;;1.67;;
51800;SDS011;37855;53.204;6.568;2022-08-03T02:39:00;12.95;;;2.33;;
51800;SDS011;37855;53.204;6.568;2022-08-03T02:41:37;6.97;;;1.65;;
51800;SDS011;37855;53.204;6.568;2022-08-03T02:44:11;10.25;;;1.80;;
51800;SDS011;37855;53.204;6.568;2022-08-03T02:46:43;10.10;;;1.75;;
51800;SDS011;37855;53.204;6.568;2022-08-03T02:49:11;12.15;;;1.88;;
51800;SDS011;37855;53.204;6.568;2022-08-03T02:51:43;8.88;;;1.65;;
51800;SDS011;37855;53.204;6.568;2022-08-03T02:54:11;6.50;;;1.85;;
51800;SDS011;37855;53.204;6.568;2022-08-03T02:56:48;10.43;;;1.85;;
51800;SDS011;37855;53.204;6.568;2022-08-03T02:59:23;7.05;;;1.55;;
51800;SDS011;37855;53.204;6.568;2022-08-03T03:01:51;8.23;;;1.83;;
51800;SDS011;37855;53.204;6.568;2022-08-03T03:04:19;9.98;;;2.00;;
51800;SDS011;37855;53.204;6.568;2022-08-03T03:06:45;11.85;;;1.92;;
51800;SDS011;37855;53.204;6.568;2022-08-03T03:09:12;9.30;;;1.60;;
51800;SDS011;37855;53.204;6.568;2022-08-03T03:11:38;9.38;;;2.05;;
51800;SDS011;37855;53.204;6.568;2022-08-03T03:14:06;7.50;;;1.50;;
51800;SDS011;37855;53.204;6.568;2022-08-03T03:16:33;7.45;;;1.73;;
51800;SDS011;37855;53.204;6.568;2022-08-03T03:19:00;8.05;;;1.83;;
51800;SDS011;37855;53.204;6.568;2022-08-03T03:21:26;8.73;;;1.48;;
51800;SDS011;37855;53.204;6.568;2022-08-03T03:23:57;7.97;;;1.90;;
51800;SDS011;37855;53.204;6.568;2022-08-03T03:26:25;13.35;;;2.17;;
51800;SDS011;37855;53.204;6.568;2022-08-03T03:28:51;7.38;;;1.90;;
51800;SDS011;37855;53.204;6.568;2022-08-03T03:31:17;10.43;;;1.98;;
51800;SDS011;37855;53.204;6.568;2022-08-03T03:33:43;7.07;;;1.85;;
51800;SDS011;37855;53.204;6.568;2022-08-03T03:36:09;11.52;;;2.10;;
51800;SDS011;37855;53.204;6.568;2022-08-03T03:38:36;7.90;;;1.80;;
51800;SDS011;37855;53.204;6.568;2022-08-03T03:41:23;8.35;;;2.08;;
51800;SDS011;37855;53.204;6.568;2022-08-03T03:44:00;6.70;;;1.67;;
51800;SDS011;37855;53.204;6.568;2022-08-03T03:46:28;7.53;;;1.88;;
51800;SDS011;37855;53.204;6.568;2022-08-03T03:48:57;9.38;;;1.90;;
51800;SDS011;37855;53.204;6.568;2022-08-03T03:51:22;8.40;;;1.95;;
51800;SDS011;37855;53.204;6.568;2022-08-03T03:53:55;11.82;;;2.13;;
51800;SDS011;37855;53.204;6.568;2022-08-03T03:56:25;12.95;;;2.30;;
51800;SDS011;37855;53.204;6.568;2022-08-03T03:58:51;10.07;;;1.98;;
51800;SDS011;37855;53.204;6.568;2022-08-03T04:01:17;9.13;;;2.20;;
51800;SDS011;37855;53.204;6.568;2022-08-03T04:03:43;8.60;;;2.13;;
51800;SDS011;37855;53.204;6.568;2022-08-03T04:06:09;8.85;;;2.25;;
51800;SDS011;37855;53.204;6.568;2022-08-03T04:08:55;9.13;;;2.33;;
51800;SDS011;37855;53.204;6.568;2022-08-03T04:11:44;8.25;;;1.70;;
51800;SDS011;37855;53.204;6.568;2022-08-03T04:16:52;9.63;;;2.20;;
51800;SDS011;37855;53.204;6.568;2022-08-03T04:20:04;11.48;;;1.92;;
51800;SDS011;37855;53.204;6.568;2022-08-03T04:22:13;8.25;;;2.00;;
51800;SDS011;37855;53.204;6.568;2022-08-03T04:24:44;8.35;;;2.13;;
51800;SDS011;37855;53.204;6.568;2022-08-03T04:27:16;5.60;;;2.03;;
51800;SDS011;37855;53.204;6.568;2022-08-03T04:29:45;11.85;;;2.40;;
51800;SDS011;37855;53.204;6.568;2022-08-03T04:32:13;9.93;;;2.20;;
51800;SDS011;37855;53.204;6.568;2022-08-03T04:34:40;9.45;;;2.35;;
51800;SDS011;37855;53.204;6.568;2022-08-03T04:39:56;10.18;;;2.45;;
51800;SDS011;37855;53.204;6.568;2022-08-03T04:42:25;11.50;;;2.30;;
51800;SDS011;37855;53.204;6.568;2022-08-03T04:44:52;8.43;;;2.17;;
51800;SDS011;37855;53.204;6.568;2022-08-03T04:47:19;7.60;;;1.60;;
51800;SDS011;37855;53.204;6.568;2022-08-03T04:49:48;7.22;;;2.40;;
51800;SDS011;37855;53.204;6.568;2022-08-03T04:52:14;8.48;;;2.10;;
51800;SDS011;37855;53.204;6.568;2022-08-03T04:54:41;11.60;;;2.00;;
51800;SDS011;37855;53.204;6.568;2022-08-03T04:57:08;8.05;;;2.30;;
51800;SDS011;37855;53.204;6.568;2022-08-03T04:59:35;16.50;;;2.42;;
51800;SDS011;37855;53.204;6.568;2022-08-03T05:02:01;11.00;;;2.30;;
51800;SDS011;37855;53.204;6.568;2022-08-03T05:04:26;11.60;;;2.10;;
51800;SDS011;37855;53.204;6.568;2022-08-03T05:06:52;10.52;;;2.60;;
51800;SDS011;37855;53.204;6.568;2022-08-03T05:09:18;9.07;;;2.10;;
51800;SDS011;37855;53.204;6.568;2022-08-03T05:11:44;13.25;;;2.25;;
51800;SDS011;37855;53.204;6.568;2022-08-03T05:14:10;13.82;;;2.38;;
51800;SDS011;37855;53.204;6.568;2022-08-03T05:16:36;12.98;;;2.35;;
51800;SDS011;37855;53.204;6.568;2022-08-03T05:19:01;9.60;;;2.47;;
51800;SDS011;37855;53.204;6.568;2022-08-03T05:21:27;14.55;;;2.65;;
51800;SDS011;37855;53.204;6.568;2022-08-03T05:23:53;13.15;;;2.33;;
51800;SDS011;37855;53.204;6.568;2022-08-03T05:26:19;9.23;;;2.20;;
51800;SDS011;37855;53.204;6.568;2022-08-03T05:28:44;9.98;;;2.15;;
51800;SDS011;37855;53.204;6.568;2022-08-03T05:31:10;10.65;;;2.53;;
51800;SDS011;37855;53.204;6.568;2022-08-03T05:33:37;11.77;;;2.38;;
51800;SDS011;37855;53.204;6.568;2022-08-03T05:36:03;10.80;;;2.28;;
51800;SDS011;37855;53.204;6.568;2022-08-03T05:38:30;10.85;;;2.15;;
51800;SDS011;37855;53.204;6.568;2022-08-03T05:40:56;8.82;;;2.10;;
51800;SDS011;37855;53.204;6.568;2022-08-03T05:43:22;10.32;;;2.10;;
51800;SDS011;37855;53.204;6.568;2022-08-03T05:45:47;11.27;;;2.15;;
51800;SDS011;37855;53.204;6.568;2022-08-03T05:48:13;13.30;;;2.20;;
51800;SDS011;37855;53.204;6.568;2022-08-03T05:50:39;13.95;;;2.50;;
51800;SDS011;37855;53.204;6.568;2022-08-03T05:53:04;12.40;;;2.60;;
51800;SDS011;37855;53.204;6.568;2022-08-03T05:55:30;10.25;;;2.50;;
51800;SDS011;37855;53.204;6.568;2022-08-03T05:57:56;15.90;;;2.20;;
51800;SDS011;37855;53.204;6.568;2022-08-03T06:00:21;8.70;;;2.25;;
51800;SDS011;37855;53.204;6.568;2022-08-03T06:02:47;11.73;;;2.20;;
51800;SDS011;37855;53.204;6.568;2022-08-03T06:05:13;18.35;;;2.50;;
51800;SDS011;37855;53.204;6.568;2022-08-03T06:07:39;15.00;;;2.67;;
51800;SDS011;37855;53.204;6.568;2022-08-03T06:10:04;12.45;;;2.58;;
51800;SDS011;37855;53.204;6.568;2022-08-03T06:12:31;11.48;;;2.92;;
51800;SDS011;37855;53.204;6.568;2022-08-03T06:15:03;16.75;;;2.88;;
51800;SDS011;37855;53.204;6.568;2022-08-03T06:17:29;10.60;;;2.67;;
51800;SDS011;37855;53.204;6.568;2022-08-03T06:19:55;12.13;;;2.55;;
51800;SDS011;37855;53.204;6.568;2022-08-03T06:22:21;14.27;;;2.67;;
51800;SDS011;37855;53.204;6.568;2022-08-03T06:24:46;12.48;;;2.50;;
51800;SDS011;37855;53.204;6.568;2022-08-03T06:27:12;19.92;;;2.60;;
51800;SDS011;37855;53.204;6.568;2022-08-03T06:29:37;10.50;;;2.38;;
51800;SDS011;37855;53.204;6.568;2022-08-03T06:32:03;18.50;;;2.97;;
51800;SDS011;37855;53.204;6.568;2022-08-03T06:34:29;14.90;;;2.50;;
51800;SDS011;37855;53.204;6.568;2022-08-03T06:36:54;14.68;;;2.58;;
51800;SDS011;37855;53.204;6.568;2022-08-03T06:39:21;13.00;;;2.42;;
51800;SDS011;37855;53.204;6.568;2022-08-03T06:41:48;15.70;;;2.70;;
51800;SDS011;37855;53.204;6.568;2022-08-03T06:44:13;12.63;;;2.72;;
51800;SDS011;37855;53.204;6.568;2022-08-03T06:46:39;15.15;;;2.78;;
51800;SDS011;37855;53.204;6.568;2022-08-03T06:49:05;14.00;;;2.50;;
51800;SDS011;37855;53.204;6.568;2022-08-03T06:51:31;14.02;;;3.50;;
51800;SDS011;37855;53.204;6.568;2022-08-03T06:53:57;14.63;;;2.92;;
51800;SDS011;37855;53.204;6.568;2022-08-03T06:56:23;14.30;;;3.30;;
51800;SDS011;37855;53.204;6.568;2022-08-03T06:58:48;10.63;;;2.90;;
51800;SDS011;37855;53.204;6.568;2022-08-03T07:01:14;10.27;;;2.85;;
51800;SDS011;37855;53.204;6.568;2022-08-03T07:03:40;15.98;;;3.60;;
51800;SDS011;37855;53.204;6.568;2022-08-03T07:06:05;19.70;;;3.10;;
51800;SDS011;37855;53.204;6.568;2022-08-03T07:08:31;12.98;;;2.83;;
51800;SDS011;37855;53.204;6.568;2022-08-03T07:10:57;16.10;;;2.88;;
51800;SDS011;37855;53.204;6.568;2022-08-03T07:13:23;18.55;;;2.80;;
51800;SDS011;37855;53.204;6.568;2022-08-03T07:15:48;13.48;;;2.88;;
51800;SDS011;37855;53.204;6.568;2022-08-03T07:18:15;18.08;;;3.33;;
51800;SDS011;37855;53.204;6.568;2022-08-03T07:20:40;14.63;;;3.08;;
51800;SDS011;37855;53.204;6.568;2022-08-03T07:23:07;11.93;;;3.00;;
51800;SDS011;37855;53.204;6.568;2022-08-03T07:25:33;23.33;;;3.65;;
51800;SDS011;37855;53.204;6.568;2022-08-03T07:27:59;9.73;;;2.50;;
51800;SDS011;37855;53.204;6.568;2022-08-03T07:30:25;13.70;;;3.00;;
51800;SDS011;37855;53.204;6.568;2022-08-03T07:32:51;16.25;;;3.60;;
51800;SDS011;37855;53.204;6.568;2022-08-03T07:35:16;22.40;;;3.60;;
51800;SDS011;37855;53.204;6.568;2022-08-03T07:37:43;26.70;;;3.50;;
51800;SDS011;37855;53.204;6.568;2022-08-03T07:40:08;11.18;;;2.67;;
51800;SDS011;37855;53.204;6.568;2022-08-03T07:42:34;10.85;;;2.80;;
51800;SDS011;37855;53.204;6.568;2022-08-03T07:45:00;14.30;;;3.25;;
51800;SDS011;37855;53.204;6.568;2022-08-03T07:47:26;18.52;;;3.15;;
51800;SDS011;37855;53.204;6.568;2022-08-03T07:49:54;15.50;;;3.13;;
51800;SDS011;37855;53.204;6.568;2022-08-03T07:52:19;12.98;;;3.00;;
51800;SDS011;37855;53.204;6.568;2022-08-03T07:55:04;20.05;;;3.20;;
51800;SDS011;37855;53.204;6.568;2022-08-03T07:57:31;15.32;;;2.72;;
51800;SDS011;37855;53.204;6.568;2022-08-03T07:59:57;12.63;;;2.42;;
51800;SDS011;37855;53.204;6.568;2022-08-03T08:02:23;9.73;;;2.78;;
51800;SDS011;37855;53.204;6.568;2022-08-03T08:04:49;12.88;;;2.95;;
51800;SDS011;37855;53.204;6.568;2022-08-03T08:07:14;16.42;;;2.72;;
51800;SDS011;37855;53.204;6.568;2022-08-03T08:09:40;21.40;;;2.70;;
51800;SDS011;37855;53.204;6.568;2022-08-03T08:12:06;23.15;;;2.67;;
51800;SDS011;37855;53.204;6.568;2022-08-03T08:14:33;17.88;;;3.17;;
51800;SDS011;37855;53.204;6.568;2022-08-03T08:16:59;16.58;;;2.65;;
51800;SDS011;37855;53.204;6.568;2022-08-03T08:19:24;30.58;;;3.60;;
51800;SDS011;37855;53.204;6.568;2022-08-03T08:21:50;21.55;;;3.63;;
51800;SDS011;37855;53.204;6.568;2022-08-03T08:24:16;16.20;;;3.10;;
51800;SDS011;37855;53.204;6.568;2022-08-03T08:26:41;14.63;;;2.97;;
51800;SDS011;37855;53.204;6.568;2022-08-03T08:29:07;13.43;;;3.00;;
51800;SDS011;37855;53.204;6.568;2022-08-03T08:31:33;15.68;;;2.63;;
51800;SDS011;37855;53.204;6.568;2022-08-03T08:33:58;21.80;;;3.40;;
51800;SDS011;37855;53.204;6.568;2022-08-03T08:36:29;20.90;;;3.60;;
51800;SDS011;37855;53.204;6.568;2022-08-03T08:38:56;24.15;;;3.80;;
51800;SDS011;37855;53.204;6.568;2022-08-03T08:41:21;16.45;;;3.33;;
51800;SDS011;37855;53.204;6.568;2022-08-03T08:43:47;11.40;;;3.50;;
51800;SDS011;37855;53.204;6.568;2022-08-03T08:46:13;11.73;;;3.78;;
51800;SDS011;37855;53.204;6.568;2022-08-03T08:48:40;26.00;;;3.55;;
51800;SDS011;37855;53.204;6.568;2022-08-03T08:51:08;14.93;;;3.05;;
51800;SDS011;37855;53.204;6.568;2022-08-03T08:53:36;22.23;;;3.47;;
51800;SDS011;37855;53.204;6.568;2022-08-03T08:56:08;18.00;;;3.20;;
51800;SDS011;37855;53.204;6.568;2022-08-03T08:58:41;16.10;;;3.42;;
51800;SDS011;37855;53.204;6.568;2022-08-03T09:01:13;11.75;;;3.03;;
51800;SDS011;37855;53.204;6.568;2022-08-03T09:03:38;14.70;;;3.33;;
51800;SDS011;37855;53.204;6.568;2022-08-03T09:06:05;12.57;;;3.63;;
51800;SDS011;37855;53.204;6.568;2022-08-03T09:08:31;14.43;;;3.58;;
51800;SDS011;37855;53.204;6.568;2022-08-03T09:10:57;16.08;;;3.50;;
51800;SDS011;37855;53.204;6.568;2022-08-03T09:13:23;12.90;;;3.25;;
51800;SDS011;37855;53.204;6.568;2022-08-03T09:15:51;13.13;;;3.17;;
51800;SDS011;37855;53.204;6.568;2022-08-03T09:18:41;12.65;;;3.10;;
51800;SDS011;37855;53.204;6.568;2022-08-03T09:21:18;13.52;;;3.05;;
51800;SDS011;37855;53.204;6.568;2022-08-03T09:23:49;13.05;;;3.08;;
51800;SDS011;37855;53.204;6.568;2022-08-03T09:26:20;14.93;;;3.22;;
51800;SDS011;37855;53.204;6.568;2022-08-03T09:29:01;21.55;;;3.90;;
51800;SDS011;37855;53.204;6.568;2022-08-03T09:31:29;11.52;;;3.17;;
51800;SDS011;37855;53.204;6.568;2022-08-03T09:34:16;13.02;;;3.40;;
51800;SDS011;37855;53.204;6.568;2022-08-03T09:36:49;12.68;;;3.20;;
51800;SDS011;37855;53.204;6.568;2022-08-03T09:39:19;14.90;;;3.25;;
51800;SDS011;37855;53.204;6.568;2022-08-03T09:41:46;12.82;;;3.28;;
51800;SDS011;37855;53.204;6.568;2022-08-03T09:44:39;11.88;;;3.28;;
51800;SDS011;37855;53.204;6.568;2022-08-03T09:47:07;17.27;;;3.40;;
51800;SDS011;37855;53.204;6.568;2022-08-03T09:49:34;16.52;;;4.25;;
51800;SDS011;37855;53.204;6.568;2022-08-03T09:52:01;12.77;;;3.78;;
51800;SDS011;37855;53.204;6.568;2022-08-03T09:54:40;16.75;;;3.40;;
51800;SDS011;37855;53.204;6.568;2022-08-03T09:57:07;15.65;;;3.40;;
51800;SDS011;37855;53.204;6.568;2022-08-03T09:59:33;13.70;;;3.72;;
51800;SDS011;37855;53.204;6.568;2022-08-03T10:01:59;14.43;;;3.78;;
51800;SDS011;37855;53.204;6.568;2022-08-03T10:04:26;16.20;;;3.20;;
51800;SDS011;37855;53.204;6.568;2022-08-03T10:07:12;17.05;;;4.20;;
51800;SDS011;37855;53.204;6.568;2022-08-03T10:09:39;17.33;;;4.50;;
51800;SDS011;37855;53.204;6.568;2022-08-03T10:12:25;17.05;;;3.90;;
51800;SDS011;37855;53.204;6.568;2022-08-03T10:14:51;11.30;;;3.55;;
51800;SDS011;37855;53.204;6.568;2022-08-03T10:17:17;18.63;;;4.03;;
51800;SDS011;37855;53.204;6.568;2022-08-03T10:19:44;9.88;;;3.00;;
51800;SDS011;37855;53.204;6.568;2022-08-03T10:22:12;14.95;;;3.60;;
51800;SDS011;37855;53.204;6.568;2022-08-03T10:25:06;12.20;;;3.15;;
51800;SDS011;37855;53.204;6.568;2022-08-03T10:27:38;13.98;;;3.85;;
51800;SDS011;37855;53.204;6.568;2022-08-03T10:30:05;18.48;;;4.47;;
51800;SDS011;37855;53.204;6.568;2022-08-03T10:32:34;22.02;;;3.45;;
51800;SDS011;37855;53.204;6.568;2022-08-03T10:37:40;12.68;;;3.22;;
51800;SDS011;37855;53.204;6.568;2022-08-03T10:40:12;20.23;;;3.50;;
51800;SDS011;37855;53.204;6.568;2022-08-03T10:42:44;12.20;;;2.85;;
51800;SDS011;37855;53.204;6.568;2022-08-03T10:45:17;18.80;;;3.50;;
51800;SDS011;37855;53.204;6.568;2022-08-03T10:47:51;13.48;;;3.25;;
51800;SDS011;37855;53.204;6.568;2022-08-03T10:50:19;11.18;;;3.33;;
51800;SDS011;37855;53.204;6.568;2022-08-03T10:53:01;29.98;;;3.95;;
51800;SDS011;37855;53.204;6.568;2022-08-03T10:55:35;19.35;;;3.67;;
51800;SDS011;37855;53.204;6.568;2022-08-03T11:01:05;15.40;;;3.33;;
51800;SDS011;37855;53.204;6.568;2022-08-03T11:03:32;14.18;;;3.30;;
51800;SDS011;37855;53.204;6.568;2022-08-03T11:06:22;15.75;;;3.72;;
51800;SDS011;37855;53.204;6.568;2022-08-03T11:12:12;19.38;;;4.00;;
51800;SDS011;37855;53.204;6.568;2022-08-03T11:15:02;16.58;;;3.83;;
51800;SDS011;37855;53.204;6.568;2022-08-03T11:17:31;17.02;;;3.97;;
51800;SDS011;37855;53.204;6.568;2022-08-03T11:20:00;19.73;;;4.28;;
51800;SDS011;37855;53.204;6.568;2022-08-03T11:22:46;14.32;;;3.58;;
51800;SDS011;37855;53.204;6.568;2022-08-03T11:25:18;14.02;;;3.90;;
51800;SDS011;37855;53.204;6.568;2022-08-03T11:27:44;20.42;;;3.72;;
51800;SDS011;37855;53.204;6.568;2022-08-03T11:30:10;17.55;;;4.20;;
51800;SDS011;37855;53.204;6.568;2022-08-03T11:32:53;15.93;;;3.85;;
51800;SDS011;37855;53.204;6.568;2022-08-03T11:35:26;17.50;;;3.85;;
51800;SDS011;37855;53.204;6.568;2022-08-03T11:40:45;21.30;;;4.32;;
51800;SDS011;37855;53.204;6.568;2022-08-03T11:51:05;21.98;;;5.35;;
51800;SDS011;37855;53.204;6.568;2022-08-03T11:53:32;21.73;;;4.45;;
51800;SDS011;37855;53.204;6.568;2022-08-03T11:55:59;21.30;;;4.53;;
51800;SDS011;37855;53.204;6.568;2022-08-03T11:58:26;18.58;;;4.57;;
51800;SDS011;37855;53.204;6.568;2022-08-03T12:00:52;23.52;;;5.20;;
51800;SDS011;37855;53.204;6.568;2022-08-03T12:03:30;17.95;;;4.35;;
51800;SDS011;37855;53.204;6.568;2022-08-03T12:05:57;22.98;;;4.75;;
51800;SDS011;37855;53.204;6.568;2022-08-03T12:10:51;18.95;;;4.43;;
51800;SDS011;37855;53.204;6.568;2022-08-03T12:13:17;22.35;;;4.35;;
51800;SDS011;37855;53.204;6.568;2022-08-03T12:15:49;28.48;;;4.63;;
51800;SDS011;37855;53.204;6.568;2022-08-03T12:18:19;22.08;;;4.70;;
51800;SDS011;37855;53.204;6.568;2022-08-03T12:20:46;22.20;;;4.57;;
51800;SDS011;37855;53.204;6.568;2022-08-03T12:23:14;22.63;;;4.05;;
51800;SDS011;37855;53.204;6.568;2022-08-03T12:25:41;28.17;;;4.28;;
51800;SDS011;37855;53.204;6.568;2022-08-03T12:28:11;35.25;;;4.40;;
51800;SDS011;37855;53.204;6.568;2022-08-03T12:30:38;17.50;;;3.90;;
51800;SDS011;37855;53.204;6.568;2022-08-03T12:33:14;18.15;;;3.60;;
51800;SDS011;37855;53.204;6.568;2022-08-03T12:36:27;17.23;;;3.97;;
51800;SDS011;37855;53.204;6.568;2022-08-03T12:38:35;23.15;;;4.25;;
51800;SDS011;37855;53.204;6.568;2022-08-03T12:41:07;26.52;;;4.38;;
51800;SDS011;37855;53.204;6.568;2022-08-03T12:43:49;33.65;;;4.22;;
51800;SDS011;37855;53.204;6.568;2022-08-03T12:46:17;20.45;;;3.75;;
51800;SDS011;37855;53.204;6.568;2022-08-03T12:54:09;20.33;;;3.92;;
51800;SDS011;37855;53.204;6.568;2022-08-03T12:56:58;18.50;;;3.75;;
51800;SDS011;37855;53.204;6.568;2022-08-03T12:59:26;17.83;;;3.80;;
51800;SDS011;37855;53.204;6.568;2022-08-03T13:01:53;21.67;;;4.97;;
51800;SDS011;37855;53.204;6.568;2022-08-03T13:04:26;20.40;;;4.35;;
51800;SDS011;37855;53.204;6.568;2022-08-03T13:07:05;19.42;;;4.45;;
51800;SDS011;37855;53.204;6.568;2022-08-03T13:09:52;18.67;;;4.28;;
51800;SDS011;37855;53.204;6.568;2022-08-03T13:12:19;23.55;;;4.97;;
51800;SDS011;37855;53.204;6.568;2022-08-03T13:14:50;16.10;;;4.40;;
51800;SDS011;37855;53.204;6.568;2022-08-03T13:17:17;22.92;;;4.88;;
51800;SDS011;37855;53.204;6.568;2022-08-03T13:19:43;22.17;;;4.47;;
51800;SDS011;37855;53.204;6.568;2022-08-03T13:22:30;20.17;;;4.50;;
51800;SDS011;37855;53.204;6.568;2022-08-03T13:24:57;27.42;;;4.82;;
51800;SDS011;37855;53.204;6.568;2022-08-03T13:27:25;23.20;;;5.20;;
51800;SDS011;37855;53.204;6.568;2022-08-03T13:29:51;15.55;;;4.30;;
51800;SDS011;37855;53.204;6.568;2022-08-03T13:32:18;19.83;;;5.20;;
51800;SDS011;37855;53.204;6.568;2022-08-03T13:34:44;29.50;;;4.75;;
51800;SDS011;37855;53.204;6.568;2022-08-03T13:37:09;24.48;;;4.07;;
51800;SDS011;37855;53.204;6.568;2022-08-03T13:39:36;14.52;;;4.00;;
51800;SDS011;37855;53.204;6.568;2022-08-03T13:42:02;17.63;;;4.32;;
51800;SDS011;37855;53.204;6.568;2022-08-03T13:44:32;17.55;;;3.80;;
51800;SDS011;37855;53.204;6.568;2022-08-03T13:47:02;16.27;;;3.80;;
51800;SDS011;37855;53.204;6.568;2022-08-03T13:49:28;25.92;;;4.50;;
51800;SDS011;37855;53.204;6.568;2022-08-03T13:51:55;18.08;;;4.20;;
51800;SDS011;37855;53.204;6.568;2022-08-03T13:54:21;18.58;;;3.85;;
51800;SDS011;37855;53.204;6.568;2022-08-03T13:56:46;17.67;;;3.70;;
51800;SDS011;37855;53.204;6.568;2022-08-03T13:59:17;22.10;;;3.92;;
51800;SDS011;37855;53.204;6.568;2022-08-03T14:01:44;22.98;;;4.00;;
51800;SDS011;37855;53.204;6.568;2022-08-03T14:04:11;17.83;;;3.97;;
51800;SDS011;37855;53.204;6.568;2022-08-03T14:06:36;18.30;;;4.28;;
51800;SDS011;37855;53.204;6.568;2022-08-03T14:09:02;17.85;;;4.30;;
51800;SDS011;37855;53.204;6.568;2022-08-03T14:11:28;14.85;;;3.58;;
51800;SDS011;37855;53.204;6.568;2022-08-03T14:13:54;18.98;;;3.92;;
51800;SDS011;37855;53.204;6.568;2022-08-03T14:16:19;14.20;;;3.63;;
51800;SDS011;37855;53.204;6.568;2022-08-03T14:18:45;19.00;;;4.10;;
51800;SDS011;37855;53.204;6.568;2022-08-03T14:21:11;24.98;;;4.38;;
51800;SDS011;37855;53.204;6.568;2022-08-03T14:23:37;19.70;;;4.53;;
51800;SDS011;37855;53.204;6.568;2022-08-03T14:26:03;15.77;;;4.20;;
51800;SDS011;37855;53.204;6.568;2022-08-03T14:28:30;16.33;;;4.50;;
51800;SDS011;37855;53.204;6.568;2022-08-03T14:30:55;14.82;;;4.18;;
51800;SDS011;37855;53.204;6.568;2022-08-03T14:33:23;18.08;;;4.10;;
51800;SDS011;37855;53.204;6.568;2022-08-03T14:35:50;13.30;;;4.13;;
51800;SDS011;37855;53.204;6.568;2022-08-03T14:38:17;12.68;;;4.20;;
51800;SDS011;37855;53.204;6.568;2022-08-03T14:40:43;15.40;;;4.00;;
51800;SDS011;37855;53.204;6.568;2022-08-03T14:43:09;21.08;;;4.47;;
51800;SDS011;37855;53.204;6.568;2022-08-03T14:45:35;13.77;;;4.07;;
51800;SDS011;37855;53.204;6.568;2022-08-03T14:48:00;17.85;;;4.10;;
51800;SDS011;37855;53.204;6.568;2022-08-03T14:50:28;17.17;;;4.05;;
51800;SDS011;37855;53.204;6.568;2022-08-03T14:52:53;11.50;;;3.75;;
51800;SDS011;37855;53.204;6.568;2022-08-03T14:55:19;18.90;;;4.38;;
51800;SDS011;37855;53.204;6.568;2022-08-03T14:57:48;13.07;;;3.55;;
51800;SDS011;37855;53.204;6.568;2022-08-03T15:00:13;16.48;;;4.13;;
51800;SDS011;37855;53.204;6.568;2022-08-03T15:02:39;11.10;;;3.63;;
51800;SDS011;37855;53.204;6.568;2022-08-03T15:05:05;16.38;;;3.80;;
51800;SDS011;37855;53.204;6.568;2022-08-03T15:07:31;14.95;;;3.75;;
51800;SDS011;37855;53.204;6.568;2022-08-03T15:09:57;11.10;;;3.70;;
51800;SDS011;37855;53.204;6.568;2022-08-03T15:12:23;14.77;;;3.10;;
51800;SDS011;37855;53.204;6.568;2022-08-03T15:14:49;13.88;;;3.90;;
51800;SDS011;37855;53.204;6.568;2022-08-03T15:17:15;14.80;;;3.60;;
51800;SDS011;37855;53.204;6.568;2022-08-03T15:19:40;15.80;;;3.65;;
51800;SDS011;37855;53.204;6.568;2022-08-03T15:22:06;15.65;;;3.65;;
51800;SDS011;37855;53.204;6.568;2022-08-03T15:24:32;19.80;;;4.30;;
51800;SDS011;37855;53.204;6.568;2022-08-03T15:26:58;14.65;;;3.75;;
51800;SDS011;37855;53.204;6.568;2022-08-03T15:29:24;17.60;;;3.50;;
51800;SDS011;37855;53.204;6.568;2022-08-03T15:31:50;15.77;;;3.78;;
51800;SDS011;37855;53.204;6.568;2022-08-03T15:34:15;11.10;;;4.10;;